Terminal Aerodrome Forecast
Issued by NWS

Home | Current Version | Previous Version | Text Only | Print | Product List | Glossary On
Versions: 1 2 3 4 5 6 7 8 9 10 11 12 13 14
000
FTUS43 KDMX 240846 AAB
TAFOTM
TAF AMD
KOTM 240846Z 2409/2506 20010KT 6SM -TSRA BKN025CB OVC060
     FM241100 18009KT 6SM BR SCT025 OVC120
     FM241600 22006KT P6SM BKN035
     FM242300 27005KT P6SM VCTS OVC035CB
     FM250300 24005KT 4SM -TSRA OVC030CB=

USA.gov is the U.S. government's official web portal to all federal, state and local government web resources and services.